createdAt,value
2018-09-13T00:00:27.231Z,12.50
2018-09-13T00:01:00.734Z,12.50
2018-09-13T00:01:34.236Z,12.60
2018-09-13T00:02:07.762Z,12.50
2018-09-13T00:02:41.282Z,12.40
2018-09-13T00:03:14.858Z,12.40
2018-09-13T00:03:48.389Z,12.50
2018-09-13T00:04:21.932Z,12.40
2018-09-13T00:04:55.473Z,12.50
2018-09-13T00:05:28.989Z,12.50
2018-09-13T00:06:02.587Z,12.40
2018-09-13T00:06:36.102Z,12.40
2018-09-13T00:07:09.609Z,12.40
2018-09-13T00:07:43.162Z,12.50
2018-09-13T00:08:16.671Z,12.40
2018-09-13T00:08:50.217Z,12.40
2018-09-13T00:09:23.722Z,12.40
2018-09-13T00:09:57.254Z,12.30
2018-09-13T00:10:30.750Z,12.40
2018-09-13T00:11:04.297Z,12.30
2018-09-13T00:11:37.942Z,12.30
2018-09-13T00:12:11.460Z,12.40
2018-09-13T00:12:45.003Z,12.30
2018-09-13T00:13:18.538Z,12.30
2018-09-13T00:13:52.102Z,12.30
2018-09-13T00:14:25.615Z,12.30
2018-09-13T00:14:59.144Z,12.30
2018-09-13T00:15:32.654Z,12.30
2018-09-13T00:16:06.251Z,12.40
2018-09-13T00:16:39.773Z,12.30
2018-09-13T00:17:13.338Z,12.30
2018-09-13T00:17:46.812Z,12.30
2018-09-13T00:18:20.364Z,12.30
2018-09-13T00:18:53.876Z,12.20
2018-09-13T00:19:27.394Z,12.30
2018-09-13T00:20:00.977Z,12.20
2018-09-13T00:20:34.544Z,12.20
2018-09-13T00:21:08.095Z,12.20
2018-09-13T00:21:41.605Z,12.20
2018-09-13T00:22:15.105Z,12.20
2018-09-13T00:22:48.620Z,12.20
2018-09-13T00:23:22.140Z,12.20
2018-09-13T00:23:55.676Z,12.20
2018-09-13T00:24:29.201Z,12.20
2018-09-13T00:25:02.769Z,12.20
2018-09-13T00:25:36.272Z,12.20
2018-09-13T00:26:09.778Z,12.10
2018-09-13T00:26:43.438Z,12.20
2018-09-13T00:27:16.939Z,12.20
2018-09-13T00:27:50.852Z,12.20
2018-09-13T00:28:24.359Z,12.10
2018-09-13T00:28:57.918Z,12.10
2018-09-13T00:29:31.464Z,12.20
2018-09-13T00:30:05.238Z,12.10
2018-09-13T00:30:38.732Z,12.10
2018-09-13T00:31:12.244Z,12.10
2018-09-13T00:31:45.773Z,12.10
2018-09-13T00:32:19.304Z,12.10
2018-09-13T00:32:52.792Z,12.10
2018-09-13T00:33:26.299Z,12.10
2018-09-13T00:33:59.828Z,12.10
2018-09-13T00:34:33.496Z,12.00
2018-09-13T00:35:07.236Z,12.10
2018-09-13T00:35:40.752Z,12.10
2018-09-13T00:36:14.260Z,12.10
2018-09-13T00:36:47.875Z,12.00
2018-09-13T00:37:21.426Z,12.00
2018-09-13T00:37:54.946Z,12.00
2018-09-13T00:38:28.468Z,12.00
2018-09-13T00:39:02.028Z,12.10
2018-09-13T00:39:35.560Z,12.00
2018-09-13T00:40:09.204Z,12.00
2018-09-13T00:40:42.708Z,12.00
2018-09-13T00:41:16.212Z,12.00
2018-09-13T00:41:49.730Z,12.00
2018-09-13T00:42:23.238Z,11.90
2018-09-13T00:42:56.758Z,12.00
2018-09-13T00:43:30.276Z,12.00
2018-09-13T00:44:03.936Z,12.00
2018-09-13T00:44:37.455Z,12.00
2018-09-13T00:45:11.013Z,11.90
2018-09-13T00:45:44.550Z,11.90
2018-09-13T00:46:18.082Z,11.90
2018-09-13T00:46:51.615Z,12.00
2018-09-13T00:47:25.146Z,11.90
2018-09-13T00:47:58.688Z,11.90
2018-09-13T00:48:32.210Z,12.00
2018-09-13T00:49:05.760Z,11.90
2018-09-13T00:49:39.750Z,11.90
2018-09-13T00:50:13.992Z,12.00
2018-09-13T00:50:47.484Z,12.00
2018-09-13T00:51:20.990Z,11.90
2018-09-13T00:51:54.553Z,11.90
2018-09-13T00:52:28.090Z,11.90
2018-09-13T00:53:01.626Z,11.90
2018-09-13T00:53:35.141Z,11.90
2018-09-13T00:54:08.664Z,11.90
2018-09-13T00:54:42.182Z,11.90
2018-09-13T00:55:15.713Z,11.90
2018-09-13T00:55:49.368Z,11.80
2018-09-13T00:56:22.860Z,11.80
2018-09-13T00:56:56.368Z,11.80
2018-09-13T00:57:29.887Z,11.80
2018-09-13T00:58:03.400Z,11.90
2018-09-13T00:58:36.947Z,11.90
2018-09-13T00:59:10.466Z,11.80
2018-09-13T00:59:44.008Z,11.90
2018-09-13T01:00:17.590Z,11.90
2018-09-13T01:00:51.081Z,11.80
2018-09-13T01:01:24.572Z,11.90
2018-09-13T01:01:58.260Z,11.90
2018-09-13T01:02:31.788Z,11.80
2018-09-13T01:03:05.643Z,11.80
2018-09-13T01:03:39.165Z,11.90
2018-09-13T01:04:12.692Z,11.80
2018-09-13T01:04:47.219Z,11.80
2018-09-13T01:05:20.768Z,11.80
2018-09-13T01:05:54.472Z,11.80
2018-09-13T01:06:28.069Z,11.80
2018-09-13T01:07:01.613Z,11.80
2018-09-13T01:07:35.170Z,11.90
2018-09-13T01:08:08.669Z,11.80
2018-09-13T01:08:42.284Z,11.80
2018-09-13T01:09:15.804Z,11.80
2018-09-13T01:09:51.318Z,11.80
2018-09-13T01:10:24.845Z,11.70
2018-09-13T01:10:58.347Z,11.70
2018-09-13T01:11:31.906Z,11.80
2018-09-13T01:12:05.768Z,11.80
2018-09-13T01:12:39.328Z,11.70
2018-09-13T01:13:12.842Z,11.80
2018-09-13T01:13:46.334Z,11.80
2018-09-13T01:14:19.844Z,11.70
2018-09-13T01:14:53.391Z,11.70
2018-09-13T01:15:26.997Z,11.80
2018-09-13T01:16:00.513Z,11.80
2018-09-13T01:16:34.028Z,11.70
2018-09-13T01:17:07.558Z,11.70
2018-09-13T01:17:41.118Z,11.70
2018-09-13T01:18:14.630Z,11.70
2018-09-13T01:18:48.133Z,11.70
2018-09-13T01:19:21.642Z,11.70
2018-09-13T01:19:55.246Z,11.70
2018-09-13T01:20:28.823Z,11.70
2018-09-13T01:21:02.458Z,11.60
2018-09-13T01:21:35.971Z,11.60
2018-09-13T01:22:09.518Z,11.70
2018-09-13T01:22:43.083Z,11.70
2018-09-13T01:23:16.611Z,11.70
2018-09-13T01:23:50.115Z,11.70
2018-09-13T01:24:23.653Z,11.60
2018-09-13T01:24:57.198Z,11.70
2018-09-13T01:25:30.743Z,11.60
2018-09-13T01:26:04.323Z,11.70
2018-09-13T01:26:37.848Z,11.70
2018-09-13T01:27:11.381Z,11.70
2018-09-13T01:27:44.876Z,11.70
2018-09-13T01:28:18.390Z,11.60
2018-09-13T01:28:51.888Z,11.60
2018-09-13T01:29:25.389Z,11.60
2018-09-13T01:29:58.924Z,11.60
2018-09-13T01:30:32.420Z,11.60
2018-09-13T01:31:05.983Z,11.70
2018-09-13T01:31:39.628Z,11.60
2018-09-13T01:32:13.193Z,11.70
2018-09-13T01:32:46.745Z,11.60
2018-09-13T01:33:20.332Z,11.60
2018-09-13T01:33:53.875Z,11.60
2018-09-13T01:34:27.371Z,11.50
2018-09-13T01:35:00.880Z,11.60
2018-09-13T01:35:34.403Z,11.60
2018-09-13T01:36:07.949Z,11.50
2018-09-13T01:36:41.473Z,11.60
2018-09-13T01:37:14.987Z,11.60
2018-09-13T01:37:48.530Z,11.60
2018-09-13T01:38:22.029Z,11.60
2018-09-13T01:38:55.553Z,11.60
2018-09-13T01:39:29.125Z,11.50
2018-09-13T01:40:02.671Z,11.60
2018-09-13T01:40:36.170Z,11.40
2018-09-13T01:41:09.693Z,11.60
2018-09-13T01:41:43.191Z,11.40
2018-09-13T01:42:16.953Z,11.50
2018-09-13T01:42:50.461Z,11.50
2018-09-13T01:43:23.963Z,11.50
2018-09-13T01:43:57.476Z,11.50
2018-09-13T01:44:31.087Z,11.40
2018-09-13T01:45:04.765Z,11.40
2018-09-13T01:45:38.353Z,11.40
2018-09-13T01:46:11.871Z,11.50
2018-09-13T01:46:45.383Z,11.40
2018-09-13T01:47:18.971Z,11.40
2018-09-13T01:47:52.527Z,11.40
2018-09-13T01:48:26.013Z,11.50
2018-09-13T01:48:59.539Z,11.50
2018-09-13T01:49:33.045Z,11.40
2018-09-13T01:50:06.623Z,11.40
2018-09-13T01:50:40.123Z,11.30
2018-09-13T01:51:13.631Z,11.40
2018-09-13T01:51:47.162Z,11.40
2018-09-13T01:52:20.711Z,11.40
2018-09-13T01:52:54.227Z,11.40
2018-09-13T01:53:27.757Z,11.50
2018-09-13T01:54:01.305Z,11.40
2018-09-13T01:54:35.447Z,11.40
2018-09-13T01:55:08.971Z,11.40
2018-09-13T01:55:42.537Z,11.40
2018-09-13T01:56:16.022Z,11.30
2018-09-13T01:56:49.547Z,11.40
2018-09-13T01:57:23.063Z,11.40
2018-09-13T01:57:56.607Z,11.40
2018-09-13T01:58:30.108Z,11.40
2018-09-13T01:59:03.600Z,11.40
2018-09-13T01:59:37.160Z,11.40
2018-09-13T02:00:10.706Z,11.40
2018-09-13T02:00:44.202Z,11.40
2018-09-13T02:01:17.708Z,11.30
2018-09-13T02:01:51.207Z,11.40
2018-09-13T02:02:24.737Z,11.30
2018-09-13T02:02:58.309Z,11.30
2018-09-13T02:03:31.805Z,11.30
2018-09-13T02:04:05.359Z,11.30
2018-09-13T02:04:38.879Z,11.30
2018-09-13T02:05:12.415Z,11.30
2018-09-13T02:05:45.943Z,11.40
2018-09-13T02:06:19.469Z,11.40
2018-09-13T02:06:52.992Z,11.30
2018-09-13T02:07:26.544Z,11.30
2018-09-13T02:08:00.082Z,11.30
2018-09-13T02:08:33.594Z,11.30
2018-09-13T02:09:09.824Z,11.20
2018-09-13T02:09:43.352Z,11.30
2018-09-13T02:10:16.848Z,11.20
2018-09-13T02:10:50.341Z,11.30
2018-09-13T02:11:23.846Z,11.30
2018-09-13T02:11:57.371Z,11.30
2018-09-13T02:12:30.886Z,11.30
2018-09-13T02:13:04.459Z,11.30
2018-09-13T02:13:37.967Z,11.20
2018-09-13T02:14:11.480Z,11.20
2018-09-13T02:14:45.001Z,11.20
2018-09-13T02:15:18.506Z,11.30
2018-09-13T02:15:52.055Z,11.30
2018-09-13T02:16:25.557Z,11.20
2018-09-13T02:16:59.043Z,11.20
2018-09-13T02:17:32.551Z,11.10
2018-09-13T02:18:06.239Z,11.10
2018-09-13T02:18:39.743Z,11.20
2018-09-13T02:19:13.267Z,11.20
2018-09-13T02:19:46.836Z,11.10
2018-09-13T02:20:20.331Z,11.20
2018-09-13T02:20:53.824Z,11.10
2018-09-13T02:21:27.314Z,11.10
2018-09-13T02:22:00.843Z,11.10
2018-09-13T02:22:34.391Z,11.10
2018-09-13T02:23:08.123Z,11.10
2018-09-13T02:23:41.652Z,11.10
2018-09-13T02:24:15.193Z,11.10
2018-09-13T02:24:48.687Z,11.10
2018-09-13T02:25:22.221Z,11.10
2018-09-13T02:25:55.735Z,11.10
2018-09-13T02:26:29.267Z,11.10
2018-09-13T02:27:02.802Z,11.10
2018-09-13T02:27:36.315Z,11.10
2018-09-13T02:28:09.874Z,11.10
2018-09-13T02:28:43.440Z,11.20
2018-09-13T02:29:16.969Z,11.10
2018-09-13T02:29:50.492Z,11.10
2018-09-13T02:30:24.066Z,11.10
2018-09-13T02:30:57.568Z,11.00
2018-09-13T02:31:31.080Z,11.00
2018-09-13T02:32:04.603Z,11.00
2018-09-13T02:32:38.151Z,11.00
2018-09-13T02:33:11.703Z,11.10
2018-09-13T02:33:45.233Z,11.10
2018-09-13T02:34:18.747Z,11.00
2018-09-13T02:34:52.285Z,11.10
2018-09-13T02:35:25.816Z,11.10
2018-09-13T02:35:59.356Z,11.00
2018-09-13T02:36:32.875Z,11.00
2018-09-13T02:37:06.388Z,11.00
2018-09-13T02:37:39.888Z,11.00
2018-09-13T02:38:13.444Z,10.90
2018-09-13T02:38:46.961Z,10.90
2018-09-13T02:39:20.476Z,11.00
2018-09-13T02:39:53.989Z,10.90
2018-09-13T02:40:27.522Z,11.00
2018-09-13T02:41:01.120Z,11.00
2018-09-13T02:41:34.627Z,11.00
2018-09-13T02:42:08.176Z,11.00
2018-09-13T02:42:41.890Z,11.00
2018-09-13T02:43:15.362Z,10.90
2018-09-13T02:43:48.864Z,11.00
2018-09-13T02:44:22.381Z,11.00
2018-09-13T02:44:55.877Z,11.00
2018-09-13T02:45:29.405Z,10.90
2018-09-13T02:46:02.920Z,10.90
2018-09-13T02:46:37.086Z,11.00
2018-09-13T02:47:10.658Z,10.90
2018-09-13T02:47:44.188Z,10.90
2018-09-13T02:48:17.686Z,11.00
2018-09-13T02:48:51.179Z,10.90
2018-09-13T02:49:24.766Z,10.90
2018-09-13T02:49:58.285Z,10.90
2018-09-13T02:50:31.789Z,10.90
2018-09-13T02:51:05.343Z,10.90
2018-09-13T02:51:38.844Z,10.80
2018-09-13T02:52:12.352Z,10.90
2018-09-13T02:52:45.916Z,10.90
2018-09-13T02:53:19.785Z,10.90
2018-09-13T02:53:53.288Z,10.90
2018-09-13T02:54:26.805Z,10.80
2018-09-13T02:55:00.332Z,10.90
2018-09-13T02:55:33.860Z,10.90
2018-09-13T02:56:07.401Z,10.80
2018-09-13T02:56:40.922Z,10.80
2018-09-13T02:57:14.422Z,10.90
2018-09-13T02:57:48.002Z,10.80
2018-09-13T02:58:21.519Z,10.80
2018-09-13T02:58:55.043Z,10.90
2018-09-13T02:59:28.538Z,10.80
2018-09-13T03:00:02.038Z,10.80
2018-09-13T03:00:35.523Z,10.90
2018-09-13T03:01:09.100Z,10.80
2018-09-13T03:01:42.643Z,10.80
2018-09-13T03:02:16.146Z,10.80
2018-09-13T03:02:49.652Z,10.80
2018-09-13T03:03:23.177Z,10.80
2018-09-13T03:03:56.676Z,10.80
2018-09-13T03:04:30.203Z,10.80
2018-09-13T03:05:03.785Z,10.80
2018-09-13T03:05:37.315Z,10.80
2018-09-13T03:06:10.966Z,10.80
2018-09-13T03:06:44.451Z,10.80
2018-09-13T03:07:17.945Z,10.80
2018-09-13T03:07:51.464Z,10.80
2018-09-13T03:08:25.053Z,10.80
2018-09-13T03:08:58.513Z,10.80
2018-09-13T03:09:32.016Z,10.70
2018-09-13T03:10:05.761Z,10.80
2018-09-13T03:10:39.309Z,10.70
2018-09-13T03:11:12.835Z,10.80
2018-09-13T03:11:46.340Z,10.70
2018-09-13T03:12:19.868Z,10.80
2018-09-13T03:12:53.382Z,10.70
2018-09-13T03:13:26.915Z,10.70
2018-09-13T03:14:00.438Z,10.70
2018-09-13T03:14:33.948Z,10.80
2018-09-13T03:15:08.304Z,10.70
2018-09-13T03:15:41.820Z,10.70
2018-09-13T03:16:15.300Z,10.70
2018-09-13T03:16:48.825Z,10.60
2018-09-13T03:17:22.343Z,10.70
2018-09-13T03:17:55.924Z,10.70
2018-09-13T03:18:29.460Z,10.60
2018-09-13T03:19:03.064Z,10.70
2018-09-13T03:19:36.586Z,10.60
2018-09-13T03:20:10.143Z,10.70
2018-09-13T03:20:43.730Z,10.70
2018-09-13T03:21:17.267Z,10.70
2018-09-13T03:21:50.768Z,10.60
2018-09-13T03:22:24.332Z,10.60
2018-09-13T03:22:57.862Z,10.60
2018-09-13T03:23:31.452Z,10.60
2018-09-13T03:24:05.030Z,10.60
2018-09-13T03:24:38.539Z,10.60
2018-09-13T03:25:12.068Z,10.70
2018-09-13T03:25:45.652Z,10.60
2018-09-13T03:26:19.196Z,10.60
2018-09-13T03:26:52.720Z,10.60
2018-09-13T03:27:26.280Z,10.50
2018-09-13T03:27:59.939Z,10.60
2018-09-13T03:28:33.500Z,10.60
2018-09-13T03:29:07.132Z,10.60
2018-09-13T03:29:40.740Z,10.50
2018-09-13T03:30:14.594Z,10.60
2018-09-13T03:30:48.133Z,10.50
2018-09-13T03:31:21.656Z,10.60
2018-09-13T03:31:55.171Z,10.60
2018-09-13T03:32:28.688Z,10.50
2018-09-13T03:33:02.230Z,10.50
2018-09-13T03:33:36.304Z,10.50
2018-09-13T03:34:09.856Z,10.50
2018-09-13T03:34:43.385Z,10.50
2018-09-13T03:35:16.963Z,10.60
2018-09-13T03:35:50.637Z,10.50
2018-09-13T03:36:24.136Z,10.50
2018-09-13T03:36:57.693Z,10.50
2018-09-13T03:37:31.206Z,10.50
2018-09-13T03:38:05.116Z,10.50
2018-09-13T03:38:38.644Z,10.50
2018-09-13T03:39:12.696Z,10.50
2018-09-13T03:39:46.234Z,10.50
2018-09-13T03:40:19.762Z,10.40
2018-09-13T03:40:53.280Z,10.40
2018-09-13T03:41:26.784Z,10.50
2018-09-13T03:42:00.357Z,10.40
2018-09-13T03:42:33.854Z,10.50
2018-09-13T03:43:07.378Z,10.40
2018-09-13T03:43:40.966Z,10.40
2018-09-13T03:44:14.460Z,10.40
2018-09-13T03:44:48.021Z,10.40
2018-09-13T03:45:21.561Z,10.40
2018-09-13T03:45:55.068Z,10.40
2018-09-13T03:46:28.569Z,10.40
2018-09-13T03:47:02.075Z,10.40
2018-09-13T03:47:35.632Z,10.40
2018-09-13T03:48:09.154Z,10.40
2018-09-13T03:48:42.630Z,10.40
2018-09-13T03:49:16.111Z,10.40
2018-09-13T03:49:49.613Z,10.40
2018-09-13T03:50:23.122Z,10.40
2018-09-13T03:50:56.639Z,10.30
2018-09-13T04:06:06.437Z,10.20
2018-09-13T04:25:54.557Z,9.80
2018-09-13T04:26:28.264Z,9.80
2018-09-13T04:27:01.814Z,9.80
2018-09-13T04:27:35.297Z,9.80
2018-09-13T04:28:08.861Z,9.80
2018-09-13T04:28:42.343Z,9.80
2018-09-13T04:29:15.855Z,9.70
2018-09-13T04:29:49.375Z,9.70
2018-09-13T04:30:22.873Z,9.70
2018-09-13T04:30:56.400Z,9.80
2018-09-13T04:31:29.907Z,9.70
2018-09-13T04:32:03.763Z,9.70
2018-09-13T04:32:37.321Z,9.80
2018-09-13T04:33:10.841Z,9.80
2018-09-13T04:33:44.326Z,9.70
2018-09-13T04:34:17.815Z,9.70
2018-09-13T04:34:51.306Z,9.70
2018-09-13T04:35:24.878Z,9.80
2018-09-13T04:35:58.377Z,9.70
2018-09-13T04:45:08.373Z,9.60
2018-09-13T04:45:41.915Z,9.60
2018-09-13T04:46:15.400Z,9.70
2018-09-13T04:46:49.085Z,9.60
2018-09-13T04:47:22.582Z,9.70
2018-09-13T04:47:56.109Z,9.70
2018-09-13T04:48:29.603Z,9.70
2018-09-13T04:49:03.091Z,9.70
2018-09-13T04:49:36.609Z,9.60
2018-09-13T04:50:10.157Z,9.70
2018-09-13T04:50:43.651Z,9.60
2018-09-13T04:51:17.161Z,9.60
2018-09-13T05:04:25.446Z,9.60
2018-09-13T05:04:58.985Z,9.50
2018-09-13T05:05:32.503Z,9.50
2018-09-13T05:06:06.038Z,9.50
2018-09-13T05:23:59.794Z,9.40
2018-09-13T05:24:33.346Z,9.50
2018-09-13T05:25:07.241Z,9.50
2018-09-13T05:25:40.768Z,9.40
2018-09-13T05:26:14.772Z,9.40
2018-09-13T05:26:48.311Z,9.30
2018-09-13T05:27:21.784Z,9.40
2018-09-13T05:27:55.288Z,9.30
2018-09-13T05:28:28.773Z,9.40
2018-09-13T05:29:02.314Z,9.40
2018-09-13T05:29:35.808Z,9.40
2018-09-13T05:30:09.355Z,9.40
2018-09-13T05:30:42.875Z,9.40
2018-09-13T05:31:16.379Z,9.40
2018-09-13T05:31:49.960Z,9.30
2018-09-13T05:32:23.427Z,9.40
2018-09-13T05:32:56.968Z,9.40
2018-09-13T05:33:30.519Z,9.50
2018-09-13T05:34:04.027Z,9.40
2018-09-13T05:34:37.517Z,9.40
2018-09-13T05:35:11.008Z,9.40
2018-09-13T05:35:44.500Z,9.40
2018-09-13T05:36:18.012Z,9.40
2018-09-13T05:43:17.792Z,9.50
2018-09-13T05:43:51.303Z,9.50
2018-09-13T05:44:24.880Z,9.60
2018-09-13T05:44:58.313Z,9.40
2018-09-13T05:45:31.870Z,9.50
2018-09-13T05:46:05.428Z,9.50
2018-09-13T05:46:39.214Z,9.50
2018-09-13T05:47:12.760Z,9.50
2018-09-13T05:47:46.252Z,9.50
2018-09-13T05:48:19.732Z,9.50
2018-09-13T05:48:53.233Z,9.50
2018-09-13T05:49:26.794Z,9.60
2018-09-13T05:50:00.309Z,9.60
2018-09-13T05:50:33.798Z,9.50
2018-09-13T05:51:07.426Z,9.50
2018-09-13T05:51:40.962Z,9.50
2018-09-13T06:02:32.308Z,9.70
2018-09-13T06:03:05.892Z,9.70
2018-09-13T06:03:39.409Z,9.70
2018-09-13T06:04:12.902Z,9.60
2018-09-13T06:04:46.405Z,9.70
2018-09-13T06:05:19.924Z,9.70
2018-09-13T06:05:53.431Z,9.80
2018-09-13T06:06:26.965Z,9.80
2018-09-13T06:21:47.431Z,9.90
2018-09-13T06:41:02.797Z,10.30
2018-09-13T06:41:36.487Z,10.40
2018-09-13T06:42:09.966Z,10.50
2018-09-13T06:42:43.479Z,10.60
2018-09-13T06:43:17.000Z,10.60
2018-09-13T06:43:50.529Z,10.60
2018-09-13T06:44:24.025Z,10.60
2018-09-13T06:44:57.529Z,10.70
2018-09-13T06:45:31.059Z,10.70
2018-09-13T06:46:04.591Z,10.70
2018-09-13T06:46:38.353Z,10.70
2018-09-13T06:47:11.849Z,10.80
2018-09-13T06:47:45.455Z,10.70
2018-09-13T06:48:18.951Z,10.80
2018-09-13T06:48:52.517Z,10.80
2018-09-13T06:49:26.035Z,10.90
2018-09-13T06:49:59.557Z,10.90
2018-09-13T06:50:33.047Z,11.00
2018-09-13T06:51:06.867Z,11.00
2018-09-13T06:51:40.400Z,11.00
2018-09-13T07:00:20.727Z,11.50
2018-09-13T07:00:54.293Z,11.70
2018-09-13T07:01:27.825Z,11.80
2018-09-13T07:02:01.329Z,11.90
2018-09-13T07:02:34.874Z,11.90
2018-09-13T07:03:08.346Z,12.00
2018-09-13T07:03:41.861Z,12.10
2018-09-13T07:04:15.365Z,12.00
2018-09-13T07:04:48.901Z,12.10
2018-09-13T07:05:22.719Z,12.20
2018-09-13T07:05:56.220Z,12.30
2018-09-13T07:06:29.707Z,12.40
2018-09-13T07:07:03.371Z,12.40
2018-09-13T07:19:37.565Z,13.60
2018-09-13T07:20:11.037Z,13.80
2018-09-13T07:20:44.525Z,13.90
2018-09-13T07:21:18.247Z,14.00
2018-09-13T07:21:51.962Z,14.00
2018-09-13T07:38:52.876Z,15.80
2018-09-13T07:39:26.437Z,16.00
2018-09-13T07:39:59.949Z,16.00
2018-09-13T07:40:33.767Z,16.30
2018-09-13T07:41:07.345Z,16.30
2018-09-13T07:41:40.884Z,16.40
2018-09-13T07:42:14.439Z,16.40
2018-09-13T07:42:47.998Z,16.50
2018-09-13T07:43:21.497Z,16.60
2018-09-13T07:43:55.209Z,16.60
2018-09-13T07:44:28.741Z,16.70
2018-09-13T07:45:02.269Z,16.70
2018-09-13T07:45:35.763Z,16.80
2018-09-13T07:46:09.237Z,16.80
2018-09-13T07:46:42.791Z,16.90
2018-09-13T07:47:16.306Z,17.00
2018-09-13T07:47:49.807Z,17.00
2018-09-13T07:48:23.333Z,17.10
2018-09-13T07:48:56.899Z,17.10
2018-09-13T07:49:30.424Z,17.10
2018-09-13T07:50:03.997Z,17.30
2018-09-13T07:50:37.525Z,17.20
2018-09-13T07:51:11.053Z,17.30
2018-09-13T07:51:44.598Z,17.40
2018-09-13T07:52:18.167Z,17.40
2018-09-13T07:58:38.063Z,18.10
2018-09-13T07:59:11.607Z,18.20
2018-09-13T07:59:45.113Z,18.30
2018-09-13T08:00:18.649Z,18.50
2018-09-13T08:00:52.279Z,18.40
2018-09-13T08:01:25.791Z,18.40
2018-09-13T08:01:59.304Z,18.40
2018-09-13T08:02:32.839Z,18.30
2018-09-13T08:03:06.415Z,18.30
2018-09-13T08:03:39.919Z,18.30
2018-09-13T08:04:13.479Z,18.30
2018-09-13T08:04:47.011Z,18.30
2018-09-13T08:05:20.527Z,18.40
2018-09-13T08:05:54.025Z,18.30
2018-09-13T08:06:27.529Z,18.30
2018-09-13T08:07:01.001Z,18.30
2018-09-13T08:17:49.731Z,18.60
2018-09-13T08:18:23.227Z,18.60
2018-09-13T08:18:56.747Z,18.70
2018-09-13T08:19:30.271Z,18.60
2018-09-13T08:20:03.833Z,18.70
2018-09-13T08:20:37.353Z,18.80
2018-09-13T08:21:10.880Z,18.80
2018-09-13T08:21:44.505Z,18.80
2018-09-13T08:22:17.968Z,18.90
2018-09-13T08:37:04.096Z,19.10
2018-09-13T08:56:19.223Z,19.80
2018-09-13T08:56:52.826Z,19.80
2018-09-13T08:57:26.340Z,19.80
2018-09-13T08:57:59.839Z,19.80
2018-09-13T08:58:33.345Z,19.80
2018-09-13T08:59:06.859Z,19.80
2018-09-13T08:59:40.360Z,19.80
2018-09-13T09:00:14.149Z,19.80
2018-09-13T09:00:47.762Z,19.80
2018-09-13T09:01:21.206Z,19.80
2018-09-13T09:01:54.705Z,19.60
2018-09-13T09:02:28.233Z,19.60
2018-09-13T09:03:01.725Z,19.60
2018-09-13T09:03:35.214Z,19.60
2018-09-13T09:04:08.812Z,19.60
2018-09-13T09:04:42.351Z,19.60
2018-09-13T09:05:15.866Z,19.70
2018-09-13T09:05:49.345Z,19.60
2018-09-13T09:06:22.846Z,19.70
2018-09-13T09:06:56.348Z,19.80
2018-09-13T09:07:29.852Z,19.80
2018-09-13T09:15:44.696Z,19.50
2018-09-13T09:16:18.233Z,19.30
2018-09-13T09:16:51.750Z,19.30
2018-09-13T09:17:25.266Z,19.20
2018-09-13T09:17:58.791Z,19.20
2018-09-13T09:18:32.354Z,19.30
2018-09-13T09:19:05.967Z,19.20
2018-09-13T09:19:39.496Z,19.30
2018-09-13T09:20:13.024Z,19.20
2018-09-13T09:20:46.555Z,19.20
2018-09-13T09:21:20.066Z,19.20
2018-09-13T09:21:53.659Z,19.20
2018-09-13T09:22:27.175Z,19.20
2018-09-13T09:35:00.378Z,19.00
2018-09-13T09:35:33.946Z,19.00
2018-09-13T09:36:07.522Z,19.10
2018-09-13T09:36:41.051Z,19.10
2018-09-13T09:37:14.614Z,19.20
2018-09-13T09:37:48.138Z,19.20
2018-09-13T09:54:12.374Z,19.40
2018-09-13T09:54:45.937Z,19.40
2018-09-13T09:55:21.287Z,19.50
2018-09-13T09:55:54.794Z,19.50
2018-09-13T09:56:28.316Z,19.50
2018-09-13T09:57:01.830Z,19.60
2018-09-13T09:57:35.336Z,19.60
2018-09-13T09:58:08.856Z,19.80
2018-09-13T09:58:42.345Z,19.80
2018-09-13T09:59:15.850Z,19.80
2018-09-13T09:59:49.326Z,19.90
2018-09-13T10:00:27.439Z,19.90
2018-09-13T10:01:06.781Z,20.10
2018-09-13T10:01:45.896Z,20.10
2018-09-13T10:02:21.602Z,20.20
2018-09-13T10:02:55.135Z,20.20
2018-09-13T10:03:28.625Z,20.30
2018-09-13T10:04:02.130Z,20.30
2018-09-13T10:04:35.751Z,20.40
2018-09-13T10:05:09.186Z,20.40
2018-09-13T10:05:42.694Z,20.50
2018-09-13T10:06:16.328Z,20.50
2018-09-13T10:06:49.866Z,20.60
2018-09-13T10:07:23.452Z,20.60
2018-09-13T10:07:56.940Z,20.60
2018-09-13T10:13:29.059Z,20.60
2018-09-13T10:14:02.648Z,21.00
2018-09-13T10:14:36.200Z,21.10
2018-09-13T10:15:15.553Z,21.10
2018-09-13T10:15:54.856Z,21.10
2018-09-13T10:16:34.087Z,21.30
2018-09-13T10:17:13.673Z,21.30
2018-09-13T10:17:52.950Z,21.30
2018-09-13T10:18:44.862Z,21.50
2018-09-13T10:19:24.176Z,21.30
2018-09-13T10:20:03.486Z,21.40
2018-09-13T10:20:42.658Z,21.50
2018-09-13T10:21:21.807Z,21.60
2018-09-13T10:22:00.958Z,21.60
2018-09-13T10:35:42.975Z,21.70
2018-09-13T10:37:21.248Z,21.80
2018-09-13T10:38:00.407Z,22.90
2018-09-13T10:52:48.537Z,23.50
2018-09-13T11:11:56.485Z,24.00
2018-09-13T11:12:37.759Z,24.20
2018-09-13T11:13:17.129Z,24.50
2018-09-13T11:13:57.137Z,24.50
2018-09-13T11:14:36.699Z,24.40
2018-09-13T11:15:41.595Z,24.60
2018-09-13T11:16:15.144Z,24.40
2018-09-13T11:16:48.703Z,24.50
2018-09-13T11:17:23.563Z,24.50
2018-09-13T11:17:57.149Z,24.60
2018-09-13T11:18:30.743Z,24.50
2018-09-13T11:19:04.489Z,24.60
2018-09-13T11:19:38.005Z,24.70
2018-09-13T11:20:11.499Z,24.80
2018-09-13T11:20:44.981Z,24.90
2018-09-13T11:21:18.547Z,24.70
2018-09-13T11:21:52.084Z,24.90
2018-09-13T11:22:25.551Z,24.90
2018-09-13T11:22:59.058Z,25.00
2018-09-13T11:31:20.429Z,25.40
2018-09-13T11:31:53.970Z,25.40
2018-09-13T11:32:27.544Z,25.20
2018-09-13T11:33:01.061Z,25.20
2018-09-13T11:33:34.717Z,25.20
2018-09-13T11:34:08.273Z,24.90
2018-09-13T11:34:42.413Z,25.10
2018-09-13T11:35:16.207Z,25.20
2018-09-13T11:35:49.671Z,25.20
2018-09-13T11:36:23.265Z,25.10
2018-09-13T11:36:56.812Z,25.10
2018-09-13T11:37:30.350Z,25.30
2018-09-13T11:38:03.994Z,25.30
2018-09-13T11:50:30.892Z,25.30
2018-09-13T11:51:04.443Z,25.50
2018-09-13T11:51:38.007Z,25.40
2018-09-13T11:52:11.496Z,25.60
2018-09-13T11:52:45.004Z,25.60
2018-09-13T11:53:18.553Z,25.60
2018-09-13T12:09:46.524Z,26.10
2018-09-13T12:10:20.060Z,25.90
2018-09-13T12:10:53.585Z,25.90
2018-09-13T12:11:27.099Z,26.00
2018-09-13T12:12:00.611Z,25.90
2018-09-13T12:12:34.141Z,26.00
2018-09-13T12:13:07.656Z,26.00
2018-09-13T12:13:41.168Z,26.00
2018-09-13T12:14:14.636Z,26.00
2018-09-13T12:14:48.121Z,26.10
2018-09-13T12:15:21.614Z,26.00
2018-09-13T12:15:55.118Z,26.00
2018-09-13T12:16:28.600Z,26.10
2018-09-13T12:17:02.127Z,26.20
2018-09-13T12:17:35.640Z,26.10
2018-09-13T12:18:09.212Z,26.10
2018-09-13T12:18:42.703Z,26.20
2018-09-13T12:19:16.324Z,26.30
2018-09-13T12:19:49.776Z,26.30
2018-09-13T12:20:23.272Z,26.40
2018-09-13T12:20:56.810Z,26.20
2018-09-13T12:21:30.320Z,26.20
2018-09-13T12:22:03.892Z,26.20
2018-09-13T12:22:37.426Z,26.30
2018-09-13T12:23:10.914Z,26.30
2018-09-13T12:29:30.684Z,25.90
2018-09-13T12:30:04.652Z,26.00
2018-09-13T12:30:38.191Z,26.00
2018-09-13T12:31:11.744Z,26.20
2018-09-13T12:31:45.320Z,26.20
2018-09-13T12:32:18.856Z,26.20
2018-09-13T12:32:52.399Z,26.30
2018-09-13T12:33:25.944Z,26.50
2018-09-13T12:33:59.493Z,26.50
2018-09-13T12:34:33.086Z,26.30
2018-09-13T12:35:06.892Z,26.30
2018-09-13T12:35:40.461Z,26.30
2018-09-13T12:36:14.012Z,26.20
2018-09-13T12:36:47.629Z,26.30
2018-09-13T12:37:21.156Z,26.30
2018-09-13T12:37:54.694Z,26.40
2018-09-13T12:38:28.273Z,26.50
2018-09-13T12:48:42.624Z,26.20
2018-09-13T12:49:16.114Z,26.00
2018-09-13T12:49:49.801Z,25.60
2018-09-13T12:50:23.357Z,25.80
2018-09-13T12:50:56.973Z,25.90
2018-09-13T12:51:30.710Z,26.00
2018-09-13T12:52:04.376Z,26.10
2018-09-13T12:52:37.909Z,26.20
2018-09-13T12:53:11.468Z,26.20
2018-09-13T12:53:45.025Z,26.40
2018-09-13T13:07:57.919Z,26.20
2018-09-13T13:08:31.456Z,26.00
2018-09-13T13:27:12.131Z,25.50
2018-09-13T13:27:45.672Z,25.60
2018-09-13T13:28:19.190Z,25.60
2018-09-13T13:28:52.709Z,25.50
2018-09-13T13:29:26.275Z,25.40
2018-09-13T13:29:59.771Z,25.30
2018-09-13T13:30:33.267Z,25.40
2018-09-13T13:31:06.835Z,25.40
2018-09-13T13:31:40.357Z,25.30
2018-09-13T13:32:13.865Z,25.40
2018-09-13T13:32:47.441Z,25.30
2018-09-13T13:33:20.943Z,25.30
2018-09-13T13:33:54.428Z,25.30
2018-09-13T13:34:27.923Z,25.20
2018-09-13T13:35:01.568Z,25.20